Aérodrome de Figeac - Livernon

LFCF · Lot, Occitanie, 法国

罗盘
风向 的 Aérodrome de Figeac - Livernon 11/29
风: 0 kt, 0 beaufort


改变
0 1.000 2.000 3.000 4.000 5.000
OVC 1.100 ft
METAR LFSL 041200Z AUTO 00000KT 9999 OVC011 05/03 Q1010 BECMG BKN030

METAR Aérodrome de Figeac - Livernon - LFCF

Aérodrome de Figeac - Livernon是,法国中的小机场。 该机场有一条跑道: 11/29. 该领域的国际民航组织标志是LFCF.

这份报告是针对2022年12月4日 13:00, 当地时间在Brive-Souillac进行的。

机场观察

可变方向的风很小或没有风。

可见度为10 km 或者更多。

有乌云密布在1.100 ft的高度。 破损或更高的上限为1.100 ft。

温度和风寒是5 °C。 露点为3 °C,相对湿度为87%。 海平面上的气压为1010 hPa (QNH)。

发展趋势

  • 变得

    可变方向的风很小或没有。 碎云在3.000 ft的高度.

白天

今天,太阳从08:12升起,在17:13降落。 这适用于Aérodrome de Figeac - Livernon,世界夏令时可能有所不同。 当地时间与世界标准时间之间的时差为+1 小时。 当前,没有夏令时有效。

公司介绍

在这个机场,你可以找到飞行俱乐部。 本场上唯一已知的公司是Aéroclub de Figeac Livernon。

体会

到Vliegles.nl去找飞行课程,跳伞和其他飞行体验。 浏览页面,了解Aérodrome de Figeac - Livernon附近所有可用的活动。 你也可以使用搜索功能来寻找你所在地附近的特定飞行课程、跳伞或其他飞行体验。

跑道

Id 标题 侧风 逆风 侧风 %
11/29 111°-291°

逆风成分最大的方向会被突出显示,并用于横风计算。 这并不一定意味着这个方向在使用。

乌云

1.100 ft OVC 乌云密布
3.000 ft BKN 变得 碎云

温度 & 天气

温度 5 °C
露点 3 °C
相对湿度 87%
Kp-index 0 (0-9)

白天

日出
08:15
中午
12:44
日落
17:13 (3:50)

小工具

你想在你的网站上有一个关于Aérodrome de Figeac - Livernon的当前航空天气(METAR)的小部件吗?

显示HTML代码

我们和第三方通过cookies跟踪您在我们网站上的互联网行为。如果你继续,我们认为你同意我们的饼干政策